This is the latest recevied weather packets stored in our database for station/object ES2ADF-5. If no packets are shown the sender has not sent any weather packets the latest 10 day(s).
| Time | Temp. | Humidity | Pressure | Rain* | Wind** | Luminosity | Snow |
|---|---|---|---|---|---|---|---|
| 1787810894 | 25.56° C | 55% | 1027.8 hPa | 0 mm | - | - | - |
| 1787810593 | 25° C | 57% | 1028.1 hPa | 0 mm | - | - | - |
| 1787810293 | 23.89° C | 58% | 1028.1 hPa | 0 mm | - | - | - |
| 1787809993 | 23.89° C | 58% | 1028 hPa | 0 mm | - | - | - |
| 1787809693 | 23.89° C | 60% | 1027.9 hPa | 0 mm | - | - | - |
| 1787809392 | 23.33° C | 61% | 1027.9 hPa | 0 mm | - | - | - |
| 1787809092 | 22.78° C | 63% | 1027.9 hPa | 0 mm | - | - | - |
| 1787808792 | 22.22° C | 63% | 1027.9 hPa | 0 mm | - | - | - |
| 1787808491 | 21.67° C | 65% | 1027.7 hPa | 0 mm | - | - | - |
| 1787808191 | 21.11° C | 65% | 1027.7 hPa | 0 mm | - | - | - |
| 1787807891 | 20.56° C | 66% | 1027.6 hPa | 0 mm | - | - | - |
| 1787807591 | 20° C | 70% | 1027.7 hPa | 0 mm | - | - | - |
| 1787807290 | 19.44° C | 72% | 1027.7 hPa | 0 mm | - | - | - |
| 1787806990 | 17.78° C | 74% | 1027.7 hPa | 0 mm | - | - | - |
| 1787806690 | 17.22° C | 79% | 1027.8 hPa | 0 mm | - | - | - |
| 1787806389 | 15° C | 85% | 1028 hPa | 0 mm | - | - | - |
| 1787806089 | 13.33° C | 89% | 1028 hPa | 0 mm | - | - | - |
| 1787805789 | 11.67° C | 90% | 1028.3 hPa | 0 mm | - | - | - |
| 1787805489 | 10.56° C | 90% | 1028.7 hPa | 0 mm | - | - | - |
| 1787805188 | 10° C | 89% | 1028.8 hPa | 0 mm | - | - | - |
| 1787804888 | 10° C | 88% | 1029 hPa | 0 mm | - | - | - |
| 1787804588 | 10° C | 88% | 1029 hPa | 0 mm | - | - | - |
| 1787804287 | 10° C | 88% | 1028.9 hPa | 0 mm | - | - | - |
| 1787803987 | 10° C | 88% | 1028.8 hPa | 0 mm | - | - | - |
| 1787803687 | 9.44° C | 88% | 1028.7 hPa | 0 mm | - | - | - |
* Rain latest hour (hover to see other rain measurements)
** Current wind speed in m/s (hover to see current wind gust speed)